Time;durP1;ratioP1;P1;durP2;ratioP2;P2;SDS_P1;SDS_P2;PMS_P1;PMS_P2;Temp;Humidity;BMP_temperature;BMP_pressure;BME280_temperature;BME280_humidity;BME280_pressure;Samples;Min_cycle;Max_cycle;Signal;HPM_P1;HPM_P2
2021/03/09 00:00:01;;;;;;;5.77;5.17;;;1.90;1.00;;;;;;5070640;28;20534;-61
2021/03/09 00:02:26;;;;;;;10.03;4.90;;;1.80;1.00;;;;;;5069105;28;20180;-63
2021/03/09 00:04:52;;;;;;;5.23;4.10;;;1.90;1.00;;;;;;5072187;28;20206;-61
2021/03/09 00:07:17;;;;;;;5.73;4.63;;;1.90;1.00;;;;;;5075236;28;20631;-61
2021/03/09 00:09:44;;;;;;;5.27;4.60;;;1.90;1.00;;;;;;5079776;28;20179;-61
2021/03/09 00:12:10;;;;;;;9.57;4.43;;;1.80;1.00;;;;;;5083037;28;20249;-61
2021/03/09 00:14:36;;;;;;;5.93;4.47;;;1.70;1.00;;;;;;5073785;28;20570;-62
2021/03/09 00:17:01;;;;;;;7.73;4.60;;;1.80;1.00;;;;;;5066777;28;20406;-62
2021/03/09 00:19:27;;;;;;;6.47;4.53;;;1.70;1.00;;;;;;5077332;28;20188;-63
2021/03/09 00:21:52;;;;;;;6.47;4.90;;;1.70;1.00;;;;;;5067748;28;20198;-62
2021/03/09 00:24:18;;;;;;;6.93;5.07;;;1.80;1.00;;;;;;5072808;28;20228;-63
2021/03/09 00:26:44;;;;;;;5.07;4.47;;;1.80;1.00;;;;;;5069537;28;20193;-63
2021/03/09 00:29:10;;;;;;;6.17;3.87;;;1.90;1.00;;;;;;5082599;28;20272;-62
2021/03/09 00:31:36;;;;;;;6.63;4.27;;;1.80;1.00;;;;;;5073688;28;20529;-62
2021/03/09 00:34:01;;;;;;;6.93;4.53;;;1.80;1.00;;;;;;5078891;28;20190;-63
2021/03/09 00:36:27;;;;;;;7.03;4.70;;;1.80;1.00;;;;;;5088346;28;20188;-64
2021/03/09 00:38:52;;;;;;;4.87;3.50;;;1.80;1.00;;;;;;5070339;28;20212;-63
2021/03/09 00:41:18;;;;;;;9.63;5.60;;;1.80;1.00;;;;;;5069963;28;20178;-63
2021/03/09 00:43:43;;;;;;;7.30;4.97;;;1.80;1.00;;;;;;5069959;28;20205;-63
2021/03/09 00:46:09;;;;;;;6.83;4.23;;;1.80;1.00;;;;;;5073912;28;20241;-63
2021/03/09 00:48:39;;;;;;;5.97;4.10;;;1.70;1.00;;;;;;5065117;28;20181;-64
2021/03/09 00:51:05;;;;;;;7.70;4.90;;;1.80;1.00;;;;;;5073411;28;20183;-63
2021/03/09 00:53:31;;;;;;;5.67;4.33;;;1.80;1.00;;;;;;5090303;28;20480;-64
2021/03/09 00:55:56;;;;;;;6.00;4.53;;;1.70;1.00;;;;;;5073213;28;20528;-62
2021/03/09 00:58:22;;;;;;;4.40;4.00;;;1.70;1.00;;;;;;5088624;28;20264;-63
2021/03/09 01:00:48;;;;;;;4.77;4.00;;;1.70;1.00;;;;;;5077165;28;20641;-62
2021/03/09 01:03:13;;;;;;;4.43;3.90;;;1.70;1.00;;;;;;5083913;28;20182;-65
2021/03/09 01:05:39;;;;;;;4.13;3.63;;;1.80;1.00;;;;;;5069453;28;20193;-63
2021/03/09 01:08:05;;;;;;;7.20;4.57;;;2.10;1.00;;;;;;5066300;28;20177;-62
2021/03/09 01:10:31;;;;;;;4.50;3.40;;;1.70;1.00;;;;;;5080594;28;20182;-62
2021/03/09 01:12:56;;;;;;;6.57;4.33;;;1.80;1.00;;;;;;5067811;28;20505;-62
2021/03/09 01:15:22;;;;;;;5.90;3.90;;;1.70;1.00;;;;;;5071222;28;20208;-62
2021/03/09 01:17:48;;;;;;;5.03;4.20;;;1.70;1.00;;;;;;5068157;28;20616;-63
2021/03/09 01:20:14;;;;;;;4.97;3.87;;;1.60;1.00;;;;;;5067577;28;20907;-63
2021/03/09 01:22:40;;;;;;;6.37;3.60;;;1.70;1.00;;;;;;5074554;28;20226;-62
2021/03/09 01:25:07;;;;;;;5.87;3.77;;;1.70;1.00;;;;;;5073874;28;20468;-61
2021/03/09 01:27:32;;;;;;;4.83;4.00;;;1.70;1.00;;;;;;5068511;28;21794;-62
2021/03/09 01:29:58;;;;;;;5.90;4.17;;;1.80;1.00;;;;;;5069229;28;20439;-62
2021/03/09 01:32:23;;;;;;;5.40;4.23;;;1.80;1.00;;;;;;5069524;28;20190;-64
2021/03/09 01:34:49;;;;;;;6.93;3.90;;;1.80;1.00;;;;;;5071783;28;20185;-62
2021/03/09 01:37:15;;;;;;;4.87;3.47;;;1.70;1.00;;;;;;5073105;28;20187;-62
2021/03/09 01:39:40;;;;;;;5.90;3.90;;;1.70;1.00;;;;;;5071326;28;20541;-62
2021/03/09 01:42:06;;;;;;;7.60;4.13;;;1.70;1.00;;;;;;5068510;28;20409;-63
2021/03/09 01:44:32;;;;;;;4.70;3.70;;;1.60;1.00;;;;;;5068065;28;20196;-63
2021/03/09 01:47:00;;;;;;;4.40;4.00;;;1.60;1.00;;;;;;5069964;28;20436;-62
2021/03/09 01:49:30;;;;;;;6.07;4.90;;;1.60;1.00;;;;;;5072808;28;20183;-63
2021/03/09 01:51:56;;;;;;;5.07;3.87;;;1.60;1.00;;;;;;5087220;28;20496;-64
2021/03/09 01:54:21;;;;;;;5.20;3.60;;;1.50;1.00;;;;;;5072901;28;20450;-63
2021/03/09 01:56:47;;;;;;;8.13;4.33;;;1.50;1.00;;;;;;5072157;28;20220;-63
2021/03/09 01:59:15;;;;;;;5.67;3.70;;;1.50;1.00;;;;;;5071767;28;20559;-64
2021/03/09 02:01:40;;;;;;;6.27;4.30;;;1.50;1.00;;;;;;5071507;28;20473;-62
2021/03/09 02:04:06;;;;;;;5.17;4.20;;;1.50;1.00;;;;;;5072704;28;20468;-63
2021/03/09 02:06:34;;;;;;;6.50;4.40;;;1.60;1.00;;;;;;5072199;28;20231;-65
2021/03/09 02:09:00;;;;;;;6.47;3.90;;;2.70;1.00;;;;;;5072432;28;20195;-63
2021/03/09 02:11:34;;;;;;;5.23;4.37;;;1.50;1.00;;;;;;5072597;28;20437;-63
2021/03/09 02:14:27;;;;;;;5.83;4.07;;;1.40;1.00;;;;;;5068017;28;20496;-62
2021/03/09 02:16:52;;;;;;;6.00;4.70;;;1.50;1.00;;;;;;5040182;28;20480;-62
2021/03/09 02:19:53;;;;;;;6.33;4.50;;;1.50;1.00;;;;;;5070205;28;20484;-63
2021/03/09 02:22:56;;;;;;;5.83;4.50;;;1.50;1.00;;;;;;5070855;28;20792;-62
2021/03/09 02:25:33;;;;;;;4.00;3.60;;;1.50;1.00;;;;;;5069189;28;20848;-64
2021/03/09 02:28:42;;;;;;;6.43;4.50;;;1.50;1.00;;;;;;5070643;28;20558;-64
2021/03/09 02:31:08;;;;;;;6.60;4.00;;;1.50;1.00;;;;;;5070604;28;20437;-64
2021/03/09 02:33:39;;;;;;;5.70;4.43;;;1.40;1.00;;;;;;5071809;28;20449;-63
2021/03/09 02:36:12;;;;;;;6.20;4.37;;;1.50;1.00;;;;;;5070009;28;20176;-63
2021/03/09 02:39:06;;;;;;;5.53;4.27;;;1.50;1.00;;;;;;5068664;28;20584;-63
2021/03/09 02:41:36;;;;;;;7.53;4.63;;;1.50;1.00;;;;;;5064962;28;20455;-64
2021/03/09 02:44:03;;;;;;;11.67;4.10;;;1.50;1.00;;;;;;5066839;28;20468;-63
2021/03/09 02:46:31;;;;;;;5.80;4.30;;;1.50;1.00;;;;;;5070534;28;20438;-62
2021/03/09 02:48:57;;;;;;;8.37;4.17;;;1.30;1.00;;;;;;5075006;28;20431;-62
2021/03/09 02:51:25;;;;;;;6.60;4.33;;;1.20;1.00;;;;;;5070149;28;20444;-61
2021/03/09 02:53:54;;;;;;;5.17;4.50;;;1.20;1.00;;;;;;5073239;28;20930;-63
2021/03/09 02:56:23;;;;;;;5.57;3.87;;;1.20;1.00;;;;;;5071286;28;20887;-62
2021/03/09 02:58:52;;;;;;;5.37;4.83;;;1.20;1.00;;;;;;5073046;28;20911;-63
2021/03/09 03:01:19;;;;;;;5.40;4.60;;;1.20;1.00;;;;;;5075370;28;20975;-62
2021/03/09 03:03:47;;;;;;;5.90;3.90;;;1.10;1.00;;;;;;5071724;28;20472;-62
2021/03/09 03:06:13;;;;;;;6.00;4.10;;;1.10;1.00;;;;;;5070794;28;20470;-63
2021/03/09 03:08:40;;;;;;;5.70;4.63;;;1.20;1.00;;;;;;5085074;28;20517;-63
2021/03/09 03:11:06;;;;;;;7.00;5.10;;;1.10;1.00;;;;;;5091265;28;20482;-62
2021/03/09 03:13:33;;;;;;;7.13;4.13;;;1.10;1.00;;;;;;5069816;28;20442;-63
2021/03/09 03:16:00;;;;;;;5.80;3.97;;;1.00;1.00;;;;;;5067694;28;20438;-64
2021/03/09 03:18:29;;;;;;;8.00;4.43;;;1.10;1.00;;;;;;5068810;28;20456;-62
2021/03/09 03:20:55;;;;;;;7.07;4.43;;;1.90;1.00;;;;;;5069758;28;20461;-62
2021/03/09 03:23:22;;;;;;;4.97;4.47;;;1.10;1.00;;;;;;5087892;28;20577;-61
2021/03/09 03:25:54;;;;;;;6.60;4.13;;;1.10;1.00;;;;;;5074205;28;20187;-64
2021/03/09 03:28:21;;;;;;;5.10;4.47;;;1.10;1.00;;;;;;5066870;28;20968;-62
2021/03/09 03:30:47;;;;;;;6.70;4.70;;;1.20;1.00;;;;;;5068222;28;20433;-63
2021/03/09 03:33:13;;;;;;;8.50;5.03;;;1.20;1.00;;;;;;5071144;28;20435;-62
2021/03/09 03:35:38;;;;;;;4.30;3.80;;;1.10;1.00;;;;;;5076797;28;20457;-62
2021/03/09 03:38:04;;;;;;;10.40;5.43;;;1.10;1.00;;;;;;5071738;28;20455;-63
2021/03/09 03:40:30;;;;;;;8.30;4.23;;;1.10;1.00;;;;;;5066536;28;20660;-63
2021/03/09 03:42:57;;;;;;;5.07;4.30;;;1.20;1.00;;;;;;5063654;28;20963;-62
2021/03/09 03:45:24;;;;;;;6.47;5.00;;;1.10;1.00;;;;;;5065702;28;21823;-62
2021/03/09 03:47:55;;;;;;;6.77;5.10;;;1.20;1.00;;;;;;5067862;28;20499;-62
2021/03/09 03:50:20;;;;;;;6.33;4.50;;;1.20;1.00;;;;;;5066040;28;20772;-62
2021/03/09 03:53:26;;;;;;;6.37;4.87;;;1.10;1.00;;;;;;5070389;28;20558;-63
2021/03/09 03:56:18;;;;;;;7.90;4.63;;;1.20;1.00;;;;;;5069381;28;20231;-64
2021/03/09 03:58:51;;;;;;;7.10;4.33;;;1.20;1.00;;;;;;5039992;28;20819;-64
2021/03/09 04:01:21;;;;;;;6.30;4.17;;;1.10;1.00;;;;;;5068375;28;20649;-64
2021/03/09 04:03:51;;;;;;;7.90;5.60;;;1.10;1.00;;;;;;5067431;28;20785;-63
2021/03/09 04:06:20;;;;;;;8.10;5.73;;;1.10;1.00;;;;;;5085041;28;20454;-62
2021/03/09 04:08:46;;;;;;;7.87;5.20;;;1.10;1.00;;;;;;5072397;28;20487;-63
2021/03/09 04:11:13;;;;;;;7.97;4.70;;;1.20;1.00;;;;;;5090513;28;20434;-62
2021/03/09 04:13:42;;;;;;;7.93;5.20;;;1.30;1.00;;;;;;5078385;28;20612;-63
2021/03/09 04:16:09;;;;;;;9.63;5.17;;;1.20;1.00;;;;;;5064315;28;20550;-63
2021/03/09 04:18:36;;;;;;;7.60;5.20;;;1.40;1.00;;;;;;5067209;28;20471;-63
2021/03/09 04:21:03;;;;;;;7.33;5.00;;;1.30;1.00;;;;;;5068644;28;20854;-61
2021/03/09 04:23:29;;;;;;;14.13;5.57;;;1.30;1.00;;;;;;5069947;28;20533;-63
2021/03/09 04:25:56;;;;;;;6.80;4.80;;;1.30;1.00;;;;;;5067907;28;20768;-64
2021/03/09 04:28:22;;;;;;;7.40;4.47;;;1.30;1.00;;;;;;5065070;28;20446;-63
2021/03/09 04:30:48;;;;;;;6.30;5.20;;;1.40;1.00;;;;;;5069761;28;20795;-63
2021/03/09 04:33:14;;;;;;;9.13;6.30;;;1.30;1.00;;;;;;5074259;28;20442;-63
2021/03/09 04:35:40;;;;;;;7.93;5.20;;;1.20;1.00;;;;;;5088376;28;20438;-63
2021/03/09 04:38:06;;;;;;;9.57;5.67;;;1.20;1.00;;;;;;5064746;28;20310;-62
2021/03/09 04:40:33;;;;;;;6.10;5.00;;;1.10;1.00;;;;;;5065191;28;20534;-63
2021/03/09 04:42:59;;;;;;;8.07;5.67;;;1.20;1.00;;;;;;5066710;28;20187;-62
2021/03/09 04:45:25;;;;;;;8.20;5.27;;;1.20;1.00;;;;;;5066131;28;21654;-63
2021/03/09 04:47:51;;;;;;;7.90;5.43;;;1.10;1.00;;;;;;5068680;28;20538;-61
2021/03/09 04:50:17;;;;;;;8.30;5.20;;;1.20;1.00;;;;;;5081441;28;20173;-61
2021/03/09 04:52:47;;;;;;;7.90;5.80;;;4.70;1.00;;;;;;5074085;28;20433;-62
2021/03/09 04:55:20;;;;;;;6.60;4.17;;;1.30;1.00;;;;;;5067673;28;20763;-62
2021/03/09 04:57:46;;;;;;;8.20;5.33;;;1.30;1.00;;;;;;5089533;28;20437;-62
2021/03/09 05:00:15;;;;;;;7.20;5.20;;;1.30;1.00;;;;;;5086645;28;20441;-61
2021/03/09 05:02:42;;;;;;;11.93;6.00;;;1.30;1.00;;;;;;5069432;28;20215;-62
2021/03/09 05:05:08;;;;;;;6.67;5.10;;;1.30;1.00;;;;;;5069220;28;20464;-63
2021/03/09 05:07:34;;;;;;;8.13;5.70;;;1.40;1.00;;;;;;5068874;28;20768;-62
2021/03/09 05:09:59;;;;;;;9.57;6.13;;;1.40;1.00;;;;;;5069773;28;20530;-64
2021/03/09 05:12:25;;;;;;;10.20;6.80;;;1.30;1.00;;;;;;5074848;28;20179;-63
2021/03/09 05:14:50;;;;;;;8.10;6.00;;;1.30;1.00;;;;;;5083089;28;20187;-64
2021/03/09 05:17:16;;;;;;;8.80;5.73;;;1.30;1.00;;;;;;5082749;28;20592;-65
2021/03/09 05:19:42;;;;;;;7.83;6.07;;;1.20;1.00;;;;;;5077470;28;20197;-64
2021/03/09 05:22:07;;;;;;;9.47;6.70;;;1.20;1.00;;;;;;5081840;28;20173;-64
2021/03/09 05:24:33;;;;;;;7.90;5.70;;;1.10;1.00;;;;;;5086838;28;20232;-64
2021/03/09 05:26:59;;;;;;;8.13;4.90;;;1.30;1.00;;;;;;5082023;28;20272;-64
2021/03/09 05:29:24;;;;;;;9.43;6.23;;;1.30;1.00;;;;;;5084762;28;20650;-63
2021/03/09 05:31:50;;;;;;;10.20;6.83;;;1.40;1.00;;;;;;5082542;28;20549;-64
2021/03/09 05:34:15;;;;;;;9.93;6.33;;;1.30;1.00;;;;;;5079539;28;20194;-63
2021/03/09 05:36:41;;;;;;;11.13;7.37;;;1.30;1.00;;;;;;5077117;28;20192;-63
2021/03/09 05:39:06;;;;;;;7.03;5.63;;;1.20;1.00;;;;;;5086247;28;20193;-63
2021/03/09 05:41:33;;;;;;;10.60;6.40;;;1.30;1.00;;;;;;5073479;28;20195;-62
2021/03/09 05:44:02;;;;;;;8.57;6.27;;;1.30;1.00;;;;;;5073326;28;20197;-62
2021/03/09 05:46:30;;;;;;;7.67;5.50;;;1.40;1.00;;;;;;5072480;28;20435;-62
2021/03/09 05:48:55;;;;;;;8.03;5.83;;;1.40;1.00;;;;;;5071376;28;20780;-63
2021/03/09 05:51:21;;;;;;;7.23;5.60;;;1.40;1.00;;;;;;5070767;28;20451;-62
2021/03/09 05:53:47;;;;;;;12.20;6.37;;;1.30;1.00;;;;;;5070069;28;20187;-62
2021/03/09 05:56:12;;;;;;;8.20;5.70;;;1.30;1.00;;;;;;5066785;28;20979;-63
2021/03/09 05:58:38;;;;;;;11.07;7.27;;;1.40;1.00;;;;;;5068615;28;20666;-62
2021/03/09 06:01:04;;;;;;;13.20;6.00;;;1.40;1.00;;;;;;5080930;28;20189;-63
2021/03/09 06:03:30;;;;;;;9.80;7.00;;;1.50;1.00;;;;;;5067204;28;20932;-63
2021/03/09 06:05:55;;;;;;;9.40;6.40;;;1.50;1.00;;;;;;5072117;28;20186;-63
2021/03/09 06:08:21;;;;;;;10.23;6.47;;;;;;;;;;5071516;28;20180;-62
2021/03/09 06:10:49;;;;;;;12.13;6.87;;;1.60;1.00;;;;;;5071677;28;20203;-63
2021/03/09 06:13:34;;;;;;;8.37;6.00;;;1.60;1.00;;;;;;5069515;28;20822;-63
2021/03/09 06:16:00;;;;;;;8.70;6.67;;;1.70;1.00;;;;;;5065994;28;20473;-63
2021/03/09 06:18:26;;;;;;;7.73;6.93;;;1.70;1.00;;;;;;5072895;28;20525;-63
2021/03/09 06:21:15;;;;;;;11.70;6.50;;;1.80;1.00;;;;;;5071666;28;20549;-62
2021/03/09 06:23:42;;;;;;;9.77;7.47;;;1.90;1.00;;;;;;5071724;28;20474;-63
2021/03/09 06:26:39;;;;;;;15.93;6.70;;;1.90;1.00;;;;;;5071793;28;20451;-63
2021/03/09 06:29:25;;;;;;;10.70;6.60;;;2.00;1.00;;;;;;5072365;28;20995;-64
2021/03/09 06:32:01;;;;;;;10.73;6.67;;;2.00;1.00;;;;;;5065964;28;20491;-63
2021/03/09 06:34:32;;;;;;;7.97;6.20;;;2.00;1.00;;;;;;5066010;28;20570;-63
2021/03/09 06:37:23;;;;;;;12.80;7.10;;;2.10;1.00;;;;;;5071008;28;20508;-62
2021/03/09 06:40:02;;;;;;;7.90;6.20;;;2.20;1.00;;;;;;5071398;28;20873;-63
2021/03/09 06:42:31;;;;;;;13.20;5.83;;;2.20;1.00;;;;;;5071017;28;20439;-64
2021/03/09 06:44:58;;;;;;;9.30;6.70;;;2.30;1.00;;;;;;5071279;28;20469;-63
2021/03/09 06:47:50;;;;;;;11.80;6.47;;;2.50;1.00;;;;;;5067479;28;20467;-64
2021/03/09 06:50:21;;;;;;;8.00;6.07;;;2.50;1.00;;;;;;5061603;28;20566;-63
2021/03/09 06:53:03;;;;;;;9.33;5.73;;;2.60;1.00;;;;;;5071267;28;20439;-63
2021/03/09 06:55:34;;;;;;;7.80;6.17;;;2.70;1.00;;;;;;5072515;28;20479;-64
2021/03/09 06:58:13;;;;;;;13.13;7.50;;;2.80;1.00;;;;;;5070878;28;20440;-63
2021/03/09 07:00:42;;;;;;;11.60;7.00;;;2.80;1.00;;;;;;5067608;28;20823;-63
2021/03/09 07:03:33;;;;;;;9.13;6.10;;;2.80;1.00;;;;;;5069628;28;20432;-62
2021/03/09 07:05:59;;;;;;;14.60;6.33;;;2.90;1.00;;;;;;5069116;28;20458;-63
2021/03/09 07:08:25;;;;;;;12.67;6.20;;;2.80;1.00;;;;;;5065291;28;20737;-63
2021/03/09 07:10:52;;;;;;;13.03;7.00;;;2.90;1.00;;;;;;5066272;28;20793;-63
2021/03/09 07:13:22;;;;;;;11.07;6.23;;;3.00;1.00;;;;;;5067189;28;20468;-65
2021/03/09 07:15:48;;;;;;;13.93;6.20;;;3.00;1.00;;;;;;5078601;28;20451;-64
2021/03/09 07:18:20;;;;;;;10.13;6.93;;;3.10;1.00;;;;;;5070098;28;20441;-62
2021/03/09 07:20:47;;;;;;;14.87;7.13;;;3.20;1.00;;;;;;5070039;28;20437;-64
2021/03/09 07:23:22;;;;;;;12.40;6.93;;;3.30;1.00;;;;;;5071173;28;20498;-63
2021/03/09 07:25:54;;;;;;;7.70;6.63;;;3.40;1.00;;;;;;5069380;28;20550;-63
2021/03/09 07:28:22;;;;;;;13.10;7.73;;;3.40;1.00;;;;;;5077490;28;20945;-63
2021/03/09 07:30:51;;;;;;;13.00;6.70;;;3.50;1.00;;;;;;5072866;28;20468;-63
2021/03/09 07:33:17;;;;;;;9.30;6.77;;;3.60;1.00;;;;;;5078421;28;20487;-64
2021/03/09 07:35:45;;;;;;;14.17;6.50;;;3.70;1.00;;;;;;5078293;28;20487;-63
2021/03/09 07:38:12;;;;;;;11.73;6.70;;;3.80;1.00;;;;;;5081982;28;20449;-65
2021/03/09 07:40:37;;;;;;;9.60;6.27;;;3.90;1.00;;;;;;5074137;28;20451;-63
2021/03/09 07:43:03;;;;;;;12.23;7.20;;;3.90;1.00;;;;;;5071567;28;20454;-62
2021/03/09 07:45:36;;;;;;;10.10;7.20;;;4.00;1.00;;;;;;5068775;28;20230;-63
2021/03/09 07:48:09;;;;;;;10.20;7.37;;;4.10;1.00;;;;;;5065032;28;20480;-63
2021/03/09 07:50:41;;;;;;;10.40;7.20;;;4.20;1.00;;;;;;5065141;28;20438;-64
2021/03/09 07:53:12;;;;;;;10.40;6.60;;;4.30;1.00;;;;;;5086816;28;20728;-64
2021/03/09 07:55:41;;;;;;;13.37;8.63;;;4.30;1.00;;;;;;5079809;28;20579;-63
2021/03/09 07:58:16;;;;;;;15.10;8.30;;;4.40;1.00;;;;;;5080269;28;20524;-63
2021/03/09 08:01:00;;;;;;;10.57;7.23;;;4.50;1.00;;;;;;5070747;28;20461;-63
2021/03/09 08:03:40;;;;;;;13.67;8.33;;;4.60;1.00;;;;;;5070551;28;20441;-62
2021/03/09 08:06:08;;;;;;;12.37;6.30;;;4.80;1.00;;;;;;5075094;28;20431;-64
2021/03/09 08:08:37;;;;;;;11.87;8.00;;;4.80;1.00;;;;;;5081176;28;20946;-63
2021/03/09 08:11:03;;;;;;;9.20;7.13;;;4.90;1.00;;;;;;5077294;28;20814;-63
2021/03/09 08:13:29;;;;;;;12.57;7.90;;;6.20;1.00;;;;;;5089828;28;20485;-64
2021/03/09 08:16:19;;;;;;;8.87;6.67;;;4.90;1.00;;;;;;5086655;28;20442;-63
2021/03/09 08:18:55;;;;;;;11.23;8.63;;;5.00;1.00;;;;;;5076404;28;20429;-63
2021/03/09 08:21:59;;;;;;;10.80;7.67;;;5.00;1.00;;;;;;5090111;28;20986;-63
2021/03/09 08:24:43;;;;;;;9.60;6.97;;;5.20;1.00;;;;;;5087458;28;20505;-66
2021/03/09 08:27:27;;;;;;;12.07;7.40;;;5.20;1.00;;;;;;5074355;28;20566;-63
2021/03/09 08:29:52;;;;;;;11.80;8.23;;;5.20;1.00;;;;;;5070233;28;20433;-63
2021/03/09 08:32:23;;;;;;;13.57;7.60;;;5.30;1.00;;;;;;5069173;28;20929;-63
2021/03/09 08:34:50;;;;;;;8.43;6.63;;;5.60;1.00;;;;;;5068741;28;20540;-64
2021/03/09 08:37:32;;;;;;;10.53;7.90;;;5.50;1.00;;;;;;5069816;28;20441;-65
2021/03/09 08:40:08;;;;;;;14.53;7.60;;;5.60;1.00;;;;;;5069823;28;20773;-65
2021/03/09 08:43:01;;;;;;;13.13;7.87;;;5.70;1.00;;;;;;5070101;28;20437;-64
2021/03/09 08:45:43;;;;;;;12.87;8.50;;;6.00;1.00;;;;;;5068208;28;20465;-64
2021/03/09 08:48:11;;;;;;;11.00;8.47;;;6.40;1.00;;;;;;5070124;28;20910;-65
2021/03/09 08:50:47;;;;;;;10.50;7.77;;;6.60;1.00;;;;;;5069435;28;20462;-63
2021/03/09 08:53:25;;;;;;;15.00;8.40;;;6.90;1.00;;;;;;5070035;28;20445;-64
2021/03/09 08:55:58;;;;;;;13.53;8.20;;;7.00;1.00;;;;;;5067861;28;20445;-64
2021/03/09 08:58:25;;;;;;;11.00;8.17;;;7.00;1.00;;;;;;5069591;28;20994;-63
2021/03/09 09:00:51;;;;;;;8.43;7.17;;;7.10;1.00;;;;;;5070422;28;20439;-55
2021/03/09 09:03:33;;;;;;;13.20;8.40;;;7.00;1.00;;;;;;5081310;28;20433;-56
2021/03/09 09:05:59;;;;;;;10.30;7.30;;;7.00;1.00;;;;;;5067076;28;20616;-55
2021/03/09 09:08:25;;;;;;;12.00;8.50;;;7.10;1.00;;;;;;5079761;28;21005;-56
2021/03/09 09:10:51;;;;;;;11.40;8.60;;;7.30;1.00;;;;;;5082972;28;20938;-55
2021/03/09 09:13:25;;;;;;;9.90;8.13;;;7.50;1.00;;;;;;5075887;28;20234;-56
2021/03/09 09:15:51;;;;;;;11.70;8.67;;;7.40;1.00;;;;;;5088331;28;20425;-53
2021/03/09 09:18:20;;;;;;;12.10;8.70;;;7.50;1.00;;;;;;5084198;28;20432;-58
2021/03/09 09:20:47;;;;;;;12.03;8.00;;;7.40;1.00;;;;;;5090071;28;20241;-57
2021/03/09 09:23:18;;;;;;;9.43;8.03;;;7.30;1.00;;;;;;5073598;28;20466;-56
2021/03/09 09:25:49;;;;;;;14.87;8.40;;;7.40;1.00;;;;;;5077887;28;20457;-55
2021/03/09 09:28:41;;;;;;;17.17;9.67;;;7.40;1.00;;;;;;5082018;28;20440;-55
2021/03/09 09:31:16;;;;;;;9.73;7.43;;;7.50;1.00;;;;;;5081398;28;20521;-58
2021/03/09 09:33:52;;;;;;;12.43;8.87;;;7.50;1.00;;;;;;5087122;28;20425;-54
2021/03/09 09:36:19;;;;;;;10.60;8.33;;;7.40;1.00;;;;;;5081693;28;20432;-55
2021/03/09 09:38:49;;;;;;;12.70;8.67;;;7.50;1.00;;;;;;5078529;28;20471;-55
2021/03/09 09:41:14;;;;;;;11.80;8.90;;;7.60;1.00;;;;;;5077057;28;20953;-53
2021/03/09 09:43:40;;;;;;;9.80;7.83;;;7.70;1.00;;;;;;5080429;28;20462;-55
2021/03/09 09:46:16;;;;;;;11.63;8.20;;;7.80;1.00;;;;;;5091008;28;20315;-56
2021/03/09 09:48:42;;;;;;;12.63;8.20;;;7.80;1.00;;;;;;5080445;28;20278;-54
2021/03/09 09:51:20;;;;;;;11.40;8.17;;;7.90;1.00;;;;;;5083136;28;20531;-55
2021/03/09 09:53:48;;;;;;;10.10;7.40;;;8.20;1.00;;;;;;5080895;28;20850;-56
2021/03/09 09:56:25;;;;;;;10.27;7.87;;;8.30;1.00;;;;;;5083741;28;20431;-54
2021/03/09 09:58:56;;;;;;;10.20;8.07;;;8.30;1.00;;;;;;5085876;28;20934;-55
2021/03/09 10:01:33;;;;;;;11.00;7.80;;;8.40;1.00;;;;;;5084697;28;20522;-53
2021/03/09 10:03:59;;;;;;;13.77;7.90;;;8.70;1.00;;;;;;5086190;28;20507;-55
2021/03/09 10:06:36;;;;;;;12.07;8.40;;;8.90;1.00;;;;;;5089535;28;20438;-55
2021/03/09 10:09:18;;;;;;;8.70;7.70;;;9.10;1.00;;;;;;5084927;28;20437;-56
2021/03/09 10:11:49;;;;;;;9.70;7.20;;;9.20;1.00;;;;;;5071941;28;20487;-56
2021/03/09 10:14:16;;;;;;;10.50;7.10;;;8.90;1.00;;;;;;5090835;28;20519;-56
2021/03/09 10:16:43;;;;;;;10.87;7.83;;;8.70;1.00;;;;;;5076330;28;20447;-55
2021/03/09 10:19:15;;;;;;;14.60;8.20;;;8.60;1.00;;;;;;5082706;28;20538;-56
2021/03/09 10:21:41;;;;;;;9.00;7.00;;;8.80;1.00;;;;;;5079452;28;20517;-56
2021/03/09 10:24:08;;;;;;;9.00;7.00;;;9.10;1.00;;;;;;5086000;28;20490;-54
2021/03/09 10:26:43;;;;;;;10.63;6.63;;;9.10;1.00;;;;;;5072758;28;20430;-56
2021/03/09 10:29:13;;;;;;;13.93;6.63;;;9.10;1.00;;;;;;5087859;28;20521;-55
2021/03/09 10:31:46;;;;;;;8.13;5.90;;;9.20;1.00;;;;;;5086807;28;20472;-55
2021/03/09 10:34:13;;;;;;;9.10;6.00;;;7.70;1.00;;;;;;5080686;28;20547;-54
2021/03/09 10:37:02;;;;;;;7.40;5.73;;;9.30;1.00;;;;;;5081374;28;20439;-57
2021/03/09 10:39:30;;;;;;;8.07;5.70;;;9.40;1.00;;;;;;5066250;28;20441;-55
2021/03/09 10:41:57;;;;;;;12.67;6.50;;;9.50;1.00;;;;;;5085036;28;20457;-56
2021/03/09 10:44:26;;;;;;;8.00;5.63;;;9.50;1.00;;;;;;5070472;28;20456;-56
2021/03/09 10:46:52;;;;;;;8.57;5.40;;;9.40;1.00;;;;;;5072381;28;20519;-56
2021/03/09 10:49:17;;;;;;;8.37;5.27;;;9.20;1.00;;;;;;5071562;28;20534;-57
2021/03/09 10:51:43;;;;;;;6.77;5.00;;;9.00;1.00;;;;;;5072118;28;20235;-57
2021/03/09 10:54:08;;;;;;;9.53;5.70;;;9.10;1.00;;;;;;5070039;28;20655;-57
2021/03/09 10:56:34;;;;;;;9.33;5.83;;;9.30;1.00;;;;;;5070439;28;20280;-58
2021/03/09 10:59:00;;;;;;;13.13;5.43;;;9.40;1.00;;;;;;5071529;28;20179;-56
2021/03/09 11:01:25;;;;;;;8.00;5.83;;;9.40;1.00;;;;;;5071414;28;20242;-57
2021/03/09 11:03:52;;;;;;;5.73;4.37;;;9.30;1.00;;;;;;5071219;28;20663;-55
2021/03/09 11:06:18;;;;;;;5.17;4.47;;;9.30;1.00;;;;;;5070109;28;20192;-58
2021/03/09 11:08:43;;;;;;;3.90;3.50;;;9.30;1.00;;;;;;5071616;28;20431;-57
2021/03/09 11:11:09;;;;;;;5.90;3.73;;;9.40;1.00;;;;;;5071336;28;20204;-57
2021/03/09 11:13:34;;;;;;;6.50;4.30;;;9.40;1.00;;;;;;5071154;28;20188;-56
2021/03/09 11:16:00;;;;;;;5.60;3.90;;;9.80;1.00;;;;;;5069282;28;20180;-57
2021/03/09 11:18:25;;;;;;;4.57;3.50;;;9.80;1.00;;;;;;5070710;28;20200;-58
2021/03/09 11:20:52;;;;;;;7.20;3.93;;;9.80;1.00;;;;;;5071231;28;20278;-57
2021/03/09 11:23:18;;;;;;;10.20;4.13;;;9.80;1.00;;;;;;5070891;28;20218;-57
2021/03/09 11:25:44;;;;;;;6.07;3.80;;;9.70;1.00;;;;;;5070319;28;20998;-56
2021/03/09 11:28:09;;;;;;;3.90;3.40;;;9.60;1.00;;;;;;5069806;28;20195;-57
2021/03/09 11:30:35;;;;;;;3.70;3.20;;;9.70;1.00;;;;;;5070618;28;20186;-57
2021/03/09 11:33:00;;;;;;;4.07;3.07;;;9.90;1.00;;;;;;5070878;28;20188;-58
2021/03/09 11:35:26;;;;;;;4.97;3.70;;;9.90;1.00;;;;;;5070349;28;20376;-57
2021/03/09 11:37:52;;;;;;;5.93;3.13;;;10.10;1.00;;;;;;5069193;28;20187;-58
2021/03/09 11:40:18;;;;;;;3.57;2.83;;;10.30;1.00;;;;;;5070512;28;20184;-57
2021/03/09 11:42:43;;;;;;;5.70;3.47;;;10.50;1.00;;;;;;5070542;28;20514;-57
2021/03/09 11:45:09;;;;;;;4.30;3.07;;;10.30;1.00;;;;;;5070771;28;20315;-57
2021/03/09 11:47:35;;;;;;;3.50;2.97;;;;;;;;;;5069981;28;20609;-57
2021/03/09 11:50:03;;;;;;;5.20;3.20;;;10.10;1.00;;;;;;5069155;28;20443;-58
2021/03/09 11:52:29;;;;;;;4.03;2.67;;;10.00;1.00;;;;;;5070489;28;20554;-61
2021/03/09 11:54:54;;;;;;;2.90;2.40;;;10.00;1.00;;;;;;5070981;28;21008;-57
2021/03/09 11:57:20;;;;;;;3.93;3.20;;;10.10;1.00;;;;;;5069369;28;20809;-58
2021/03/09 11:59:45;;;;;;;4.23;2.77;;;10.20;1.00;;;;;;5069024;28;20183;-57
2021/03/09 12:02:11;;;;;;;5.77;2.90;;;10.60;1.00;;;;;;5068995;28;20386;-57
2021/03/09 12:04:37;;;;;;;5.60;3.30;;;10.80;1.00;;;;;;5070540;28;20197;-56
2021/03/09 12:07:02;;;;;;;5.80;3.53;;;10.80;1.00;;;;;;5068730;28;20180;-58
2021/03/09 12:09:28;;;;;;;4.47;2.70;;;10.80;1.00;;;;;;5070635;28;20311;-57
2021/03/09 12:11:53;;;;;;;7.13;2.97;;;10.90;1.00;;;;;;5070006;28;20182;-57
2021/03/09 12:14:19;;;;;;;3.73;3.33;;;11.20;1.00;;;;;;5070383;28;20245;-58
2021/03/09 12:16:44;;;;;;;6.23;3.27;;;11.40;1.00;;;;;;5070438;28;20581;-58
2021/03/09 12:19:10;;;;;;;3.90;3.07;;;11.40;1.00;;;;;;5070563;28;22076;-57
2021/03/09 12:21:35;;;;;;;3.73;2.67;;;11.40;1.00;;;;;;5085196;28;20189;-56
2021/03/09 12:24:01;;;;;;;3.67;2.67;;;11.30;1.00;;;;;;5071232;28;20524;-56
2021/03/09 12:26:27;;;;;;;4.93;3.07;;;11.20;1.00;;;;;;5069337;28;20205;-57
2021/03/09 12:28:53;;;;;;;5.20;3.47;;;11.10;1.00;;;;;;5070168;28;20468;-57
2021/03/09 12:31:18;;;;;;;4.97;3.33;;;11.30;1.00;;;;;;5070325;28;20194;-58
2021/03/09 12:33:44;;;;;;;3.40;2.97;;;11.40;1.00;;;;;;5068988;28;20196;-57
2021/03/09 12:36:09;;;;;;;3.53;2.93;;;11.40;1.00;;;;;;5070302;28;20213;-56
2021/03/09 12:38:35;;;;;;;8.00;3.97;;;11.60;1.00;;;;;;5069973;28;20194;-57
2021/03/09 12:41:00;;;;;;;8.97;3.53;;;11.30;1.00;;;;;;5070067;28;20538;-59
2021/03/09 12:43:26;;;;;;;4.57;3.17;;;;;;;;;;5070215;28;20268;-56
2021/03/09 12:45:52;;;;;;;3.80;2.80;;;11.00;1.00;;;;;;5068456;28;20209;-57
2021/03/09 12:48:18;;;;;;;5.53;3.60;;;11.00;1.00;;;;;;5068304;28;20440;-56
2021/03/09 12:50:44;;;;;;;6.23;2.93;;;11.00;1.00;;;;;;5070081;28;20533;-57
2021/03/09 12:53:09;;;;;;;5.60;3.47;;;11.10;1.00;;;;;;5069296;28;20229;-57
2021/03/09 12:55:35;;;;;;;7.10;3.73;;;11.20;1.00;;;;;;5069549;28;20484;-57
2021/03/09 12:58:00;;;;;;;3.10;2.50;;;11.40;1.00;;;;;;5069651;28;20201;-59
2021/03/09 13:00:26;;;;;;;5.03;2.73;;;11.50;1.00;;;;;;5068298;28;20273;-58
2021/03/09 13:02:52;;;;;;;3.37;2.50;;;11.60;1.00;;;;;;5069925;28;20201;-57
2021/03/09 13:05:17;;;;;;;3.20;2.57;;;11.30;1.00;;;;;;5069892;28;20206;-56
2021/03/09 13:07:43;;;;;;;3.83;3.20;;;10.90;1.00;;;;;;5069849;28;20190;-58
2021/03/09 13:10:11;;;;;;;4.30;2.77;;;10.80;1.00;;;;;;5070027;28;20182;-58
2021/03/09 13:12:37;;;;;;;5.00;3.43;;;10.90;1.00;;;;;;5069758;28;20444;-58
2021/03/09 13:15:05;;;;;;;4.13;2.70;;;10.80;1.00;;;;;;5070124;28;20440;-58